createdAt,value
2022-12-31T00:01:31.159Z,11.79
2022-12-31T00:03:58.591Z,11.85
2022-12-31T00:06:35.130Z,11.84
2022-12-31T00:09:04.369Z,11.83
2022-12-31T00:11:31.533Z,11.84
2022-12-31T00:13:58.548Z,11.83
2022-12-31T00:16:31.533Z,11.83
2022-12-31T00:18:59.613Z,11.84
2022-12-31T00:21:28.421Z,11.83
2022-12-31T00:23:55.226Z,11.84
2022-12-31T00:26:25.022Z,11.85
2022-12-31T00:28:53.082Z,11.86
2022-12-31T00:31:22.513Z,11.86
2022-12-31T00:33:49.302Z,11.86
2022-12-31T00:36:18.463Z,11.87
2022-12-31T00:38:47.844Z,11.89
2022-12-31T00:41:15.965Z,11.85
2022-12-31T00:43:42.725Z,11.88
2022-12-31T00:46:10.498Z,11.86
2022-12-31T00:48:37.104Z,11.89
2022-12-31T00:51:06.063Z,11.90
2022-12-31T00:53:32.618Z,11.92
2022-12-31T00:56:01.302Z,11.92
2022-12-31T00:58:28.528Z,11.87
2022-12-31T01:00:55.027Z,11.92
2022-12-31T01:03:21.812Z,11.93
2022-12-31T01:05:48.793Z,11.93
2022-12-31T01:08:15.212Z,11.88
2022-12-31T01:10:41.543Z,11.92
2022-12-31T01:13:08.433Z,11.88
2022-12-31T01:15:36.339Z,11.90
2022-12-31T01:18:04.328Z,11.89
2022-12-31T01:20:31.188Z,11.90
2022-12-31T01:22:58.456Z,11.85
2022-12-31T01:25:24.823Z,11.85
2022-12-31T01:27:51.213Z,11.84
2022-12-31T01:30:17.571Z,11.84
2022-12-31T01:32:43.925Z,11.85
2022-12-31T01:35:10.241Z,11.84
2022-12-31T01:37:36.761Z,11.76
2022-12-31T01:40:03.541Z,11.76
2022-12-31T01:42:29.942Z,11.75
2022-12-31T01:44:56.662Z,11.76
2022-12-31T01:47:37.718Z,11.76
2022-12-31T01:50:18.448Z,11.75
2022-12-31T01:52:49.843Z,11.72
2022-12-31T01:55:28.281Z,11.69
2022-12-31T01:57:59.497Z,11.70
2022-12-31T02:00:26.159Z,11.65
2022-12-31T02:02:52.912Z,11.68
2022-12-31T02:05:40.856Z,11.61
2022-12-31T02:08:07.964Z,11.66
2022-12-31T02:10:34.700Z,11.60
2022-12-31T02:13:01.864Z,11.62
2022-12-31T02:15:45.438Z,11.57
2022-12-31T02:18:32.853Z,11.61
2022-12-31T02:21:23.527Z,11.56
2022-12-31T02:24:11.540Z,11.53
2022-12-31T02:27:15.740Z,11.54
2022-12-31T02:30:21.841Z,11.48
2022-12-31T02:33:03.028Z,11.47
2022-12-31T02:35:36.898Z,11.40
2022-12-31T02:38:09.054Z,11.43
2022-12-31T02:40:38.013Z,11.36
2022-12-31T02:43:05.047Z,11.40
2022-12-31T02:45:41.868Z,11.38
2022-12-31T02:48:14.250Z,11.38
2022-12-31T02:51:14.143Z,11.34
2022-12-31T02:53:55.619Z,11.30
2022-12-31T02:56:36.204Z,11.34
2022-12-31T02:59:20.206Z,11.29
2022-12-31T03:01:53.716Z,11.30
2022-12-31T03:04:22.511Z,11.32
2022-12-31T03:06:49.742Z,11.33
2022-12-31T03:09:16.315Z,11.34
2022-12-31T03:11:43.230Z,11.26
2022-12-31T03:14:09.744Z,11.31
2022-12-31T03:16:36.386Z,11.35
2022-12-31T03:19:03.039Z,11.37
2022-12-31T03:21:29.379Z,11.37
2022-12-31T03:23:55.746Z,11.38
2022-12-31T03:26:22.161Z,11.36
2022-12-31T03:28:48.496Z,11.35
2022-12-31T03:31:14.962Z,11.35
2022-12-31T03:33:42.173Z,11.28
2022-12-31T03:36:12.225Z,11.31
2022-12-31T03:38:39.032Z,11.31
2022-12-31T03:41:05.715Z,11.27
2022-12-31T03:43:32.351Z,11.30
2022-12-31T03:46:00.086Z,11.23
2022-12-31T03:48:26.483Z,11.29
2022-12-31T03:50:52.930Z,11.22
2022-12-31T03:53:19.823Z,11.27
2022-12-31T03:55:50.949Z,11.25
2022-12-31T03:58:17.342Z,11.21
2022-12-31T04:00:43.772Z,11.17
2022-12-31T04:03:10.118Z,11.12
2022-12-31T04:05:36.492Z,11.15
2022-12-31T04:08:03.102Z,11.17
2022-12-31T04:10:29.532Z,11.14
2022-12-31T04:12:55.867Z,11.12
2022-12-31T04:15:22.440Z,11.10
2022-12-31T04:17:48.918Z,11.13
2022-12-31T04:20:16.537Z,11.14
2022-12-31T04:22:43.103Z,10.94
2022-12-31T04:25:09.541Z,11.09
2022-12-31T04:27:35.857Z,11.03
2022-12-31T04:30:02.203Z,11.06
2022-12-31T04:32:28.579Z,11.02
2022-12-31T04:34:55.016Z,10.93
2022-12-31T04:37:21.721Z,10.98
2022-12-31T04:39:48.106Z,10.97
2022-12-31T04:42:14.471Z,10.91
2022-12-31T04:44:40.834Z,10.91
2022-12-31T04:47:07.241Z,10.85
2022-12-31T04:49:33.628Z,10.93
2022-12-31T04:51:59.967Z,10.90
2022-12-31T04:54:26.342Z,10.93
2022-12-31T04:56:52.801Z,10.91
2022-12-31T04:59:19.178Z,10.81
2022-12-31T05:01:45.616Z,10.86
2022-12-31T05:04:12.094Z,10.91
2022-12-31T05:06:38.512Z,10.85
2022-12-31T05:09:04.888Z,10.92
2022-12-31T05:11:31.352Z,10.86
2022-12-31T05:13:57.748Z,10.87
2022-12-31T05:16:24.228Z,10.90
2022-12-31T05:18:50.627Z,10.92
2022-12-31T05:21:20.974Z,10.91
2022-12-31T05:23:48.131Z,10.91
2022-12-31T05:26:14.575Z,10.90
2022-12-31T05:28:41.150Z,10.88
2022-12-31T05:31:07.629Z,10.87
2022-12-31T05:33:34.050Z,10.85
2022-12-31T05:36:00.495Z,10.85
2022-12-31T05:38:26.848Z,10.81
2022-12-31T05:41:01.190Z,10.82
2022-12-31T05:43:27.686Z,10.85
2022-12-31T05:45:54.084Z,10.85
2022-12-31T05:48:20.463Z,10.86
2022-12-31T05:50:46.825Z,10.90
2022-12-31T05:53:13.192Z,10.92
2022-12-31T05:55:39.710Z,10.88
2022-12-31T05:58:06.323Z,10.90
2022-12-31T06:00:32.713Z,10.88
2022-12-31T06:02:59.166Z,10.90
2022-12-31T06:05:26.532Z,10.83
2022-12-31T06:07:53.201Z,10.91
2022-12-31T06:10:19.547Z,10.93
2022-12-31T06:12:46.103Z,10.96
2022-12-31T06:15:12.441Z,10.95
2022-12-31T06:17:38.841Z,11.06
2022-12-31T06:20:12.252Z,11.03
2022-12-31T06:22:39.377Z,11.09
2022-12-31T06:25:06.392Z,11.13
2022-12-31T06:27:32.797Z,11.17
2022-12-31T06:29:59.109Z,11.26
2022-12-31T06:32:25.468Z,11.27
2022-12-31T06:34:51.804Z,11.32
2022-12-31T06:37:18.145Z,11.30
2022-12-31T06:39:44.539Z,11.32
2022-12-31T06:42:10.919Z,11.34
2022-12-31T06:44:37.295Z,11.31
2022-12-31T06:47:03.644Z,11.38
2022-12-31T06:49:30.048Z,11.42
2022-12-31T06:51:56.586Z,11.43
2022-12-31T06:54:23.001Z,11.41
2022-12-31T06:56:49.645Z,11.45
2022-12-31T06:59:28.514Z,11.40
2022-12-31T07:02:07.839Z,11.43
2022-12-31T07:04:49.144Z,11.52
2022-12-31T07:07:29.234Z,11.53
2022-12-31T07:10:12.921Z,11.58
2022-12-31T07:12:47.217Z,11.57
2022-12-31T07:15:40.967Z,11.66
2022-12-31T07:18:29.251Z,11.70
2022-12-31T07:20:55.878Z,11.74
2022-12-31T07:23:22.526Z,11.78
2022-12-31T07:26:03.556Z,11.82
2022-12-31T07:28:49.923Z,11.84
2022-12-31T07:31:34.560Z,11.93
2022-12-31T07:34:41.220Z,12.01
2022-12-31T07:37:18.822Z,12.06
2022-12-31T07:40:17.584Z,12.11
2022-12-31T07:43:02.205Z,12.17
2022-12-31T07:45:46.234Z,12.20
2022-12-31T07:51:05.044Z,12.28
2022-12-31T07:53:31.630Z,12.29
2022-12-31T07:56:02.546Z,12.33
2022-12-31T07:58:38.036Z,12.38
2022-12-31T08:01:05.528Z,12.39
2022-12-31T08:03:38.049Z,12.39
2022-12-31T08:06:19.653Z,12.44
2022-12-31T08:09:11.977Z,12.49
2022-12-31T08:11:54.362Z,12.46
2022-12-31T08:14:21.520Z,12.54
2022-12-31T08:16:48.705Z,12.57
2022-12-31T08:19:29.954Z,12.55
2022-12-31T08:22:24.847Z,12.65
2022-12-31T08:25:16.337Z,12.69
2022-12-31T08:28:22.536Z,12.71
2022-12-31T08:31:05.469Z,12.74
2022-12-31T08:33:37.928Z,12.73
2022-12-31T08:36:20.612Z,12.77
2022-12-31T08:38:49.703Z,12.82
2022-12-31T08:41:29.784Z,12.85
2022-12-31T08:43:59.195Z,12.81
2022-12-31T08:46:31.317Z,12.88
2022-12-31T08:48:57.831Z,12.89
2022-12-31T08:51:26.467Z,12.89
2022-12-31T08:53:53.540Z,12.90
2022-12-31T08:56:32.755Z,12.91
2022-12-31T08:59:04.812Z,12.85
2022-12-31T09:01:45.072Z,12.87
2022-12-31T09:04:33.483Z,12.85
2022-12-31T09:07:03.446Z,12.91
2022-12-31T09:10:03.080Z,12.88
2022-12-31T09:12:52.369Z,12.89
2022-12-31T09:15:42.143Z,12.85
2022-12-31T09:18:11.711Z,12.88
2022-12-31T09:20:43.729Z,12.87
2022-12-31T09:23:12.572Z,12.88
2022-12-31T09:25:46.009Z,12.85
2022-12-31T09:28:38.395Z,12.86
2022-12-31T09:31:37.363Z,12.76
2022-12-31T09:34:23.695Z,12.83
2022-12-31T09:36:56.157Z,12.84
2022-12-31T09:39:47.568Z,12.89
2022-12-31T09:42:54.325Z,12.86
2022-12-31T09:45:51.049Z,12.92
2022-12-31T09:48:46.324Z,13.00
2022-12-31T09:51:30.980Z,13.07
2022-12-31T09:54:25.431Z,13.09
2022-12-31T09:57:20.775Z,13.21
2022-12-31T10:00:02.263Z,13.18
2022-12-31T10:03:04.754Z,13.33
2022-12-31T10:05:43.381Z,13.39
2022-12-31T10:08:32.246Z,13.42
2022-12-31T10:11:05.828Z,13.51
2022-12-31T10:13:38.110Z,13.53
2022-12-31T10:16:24.654Z,13.64
2022-12-31T10:19:00.684Z,13.68
2022-12-31T10:21:26.934Z,13.72
2022-12-31T10:24:18.177Z,13.74
2022-12-31T10:26:56.114Z,13.75
2022-12-31T10:29:45.326Z,13.79
2022-12-31T10:32:14.674Z,13.80
2022-12-31T10:35:24.938Z,13.85
2022-12-31T10:38:11.597Z,13.84
2022-12-31T10:41:15.584Z,13.86
2022-12-31T10:44:17.187Z,13.84
2022-12-31T10:47:14.860Z,13.90
2022-12-31T10:50:13.756Z,13.93
2022-12-31T10:53:01.843Z,14.00
2022-12-31T10:55:37.342Z,14.03
2022-12-31T10:58:41.421Z,14.04
2022-12-31T11:01:26.703Z,14.01
2022-12-31T11:04:24.616Z,14.11
2022-12-31T11:06:53.927Z,14.12
2022-12-31T11:09:44.639Z,14.11
2022-12-31T11:12:42.556Z,14.14
2022-12-31T11:15:21.338Z,14.10
2022-12-31T11:18:13.690Z,14.20
2022-12-31T11:21:01.894Z,14.19
2022-12-31T11:24:05.427Z,14.21
2022-12-31T11:26:58.911Z,14.22
2022-12-31T11:29:39.587Z,14.18
2022-12-31T11:32:05.973Z,14.23
2022-12-31T11:34:38.459Z,14.26
2022-12-31T11:37:36.821Z,14.27
2022-12-31T11:40:12.273Z,14.28
2022-12-31T11:43:11.019Z,14.34
2022-12-31T11:46:00.719Z,14.38
2022-12-31T11:49:04.830Z,14.33
2022-12-31T11:51:50.041Z,14.31
2022-12-31T11:54:55.757Z,14.27
2022-12-31T11:57:27.435Z,14.26
2022-12-31T11:59:58.785Z,14.14
2022-12-31T12:02:34.137Z,14.20
2022-12-31T12:05:10.327Z,14.22
2022-12-31T12:07:37.361Z,14.27
2022-12-31T12:10:36.021Z,14.36
2022-12-31T12:13:22.855Z,14.37
2022-12-31T12:16:03.540Z,14.38
2022-12-31T12:18:46.592Z,14.40
2022-12-31T12:21:22.648Z,14.43
2022-12-31T12:24:04.567Z,14.45
2022-12-31T12:26:39.705Z,14.51
2022-12-31T12:29:22.338Z,14.48
2022-12-31T12:31:59.331Z,14.49
2022-12-31T12:34:35.246Z,14.44
2022-12-31T12:37:01.899Z,14.41
2022-12-31T12:39:31.939Z,14.46
2022-12-31T12:42:07.144Z,14.43
2022-12-31T12:44:34.052Z,14.46
2022-12-31T12:47:03.096Z,14.44
2022-12-31T12:49:32.707Z,14.44
2022-12-31T12:52:33.002Z,14.41
2022-12-31T12:55:30.740Z,14.42
2022-12-31T12:58:19.408Z,14.38
2022-12-31T13:01:24.775Z,14.40
2022-12-31T13:04:37.924Z,14.38
2022-12-31T13:07:15.737Z,14.31
2022-12-31T13:09:58.931Z,14.33
2022-12-31T13:13:32.678Z,14.35
2022-12-31T13:16:03.362Z,14.36
2022-12-31T13:18:47.373Z,14.41
2022-12-31T13:21:30.564Z,14.43
2022-12-31T13:23:59.982Z,14.44
2022-12-31T13:26:29.354Z,14.50
2022-12-31T13:28:56.862Z,14.45
2022-12-31T13:31:37.923Z,14.42
2022-12-31T13:34:19.038Z,14.43
2022-12-31T13:36:49.162Z,14.40
2022-12-31T13:39:20.711Z,14.40
2022-12-31T13:41:55.196Z,14.39
2022-12-31T13:44:35.177Z,14.34
2022-12-31T13:47:20.400Z,14.33
2022-12-31T13:49:54.816Z,14.36
2022-12-31T13:52:44.092Z,14.27
2022-12-31T13:55:33.681Z,14.32
2022-12-31T13:58:22.137Z,14.20
2022-12-31T14:01:34.223Z,14.19
2022-12-31T14:04:03.619Z,14.22
2022-12-31T14:06:42.512Z,14.14
2022-12-31T14:09:18.057Z,14.13
2022-12-31T14:11:59.820Z,14.11
2022-12-31T14:14:55.457Z,14.10
2022-12-31T14:17:38.771Z,14.05
2022-12-31T14:20:26.505Z,14.06
2022-12-31T14:23:17.534Z,14.05
2022-12-31T14:25:57.641Z,14.04
2022-12-31T14:28:30.327Z,14.05
2022-12-31T14:31:05.030Z,14.08
2022-12-31T14:33:44.203Z,14.03
2022-12-31T14:36:23.941Z,14.07
2022-12-31T14:39:17.902Z,14.07
2022-12-31T14:42:12.872Z,14.10
2022-12-31T14:45:03.668Z,14.14
2022-12-31T14:47:40.827Z,14.09
2022-12-31T14:50:15.329Z,14.10
2022-12-31T14:52:56.428Z,14.14
2022-12-31T14:55:35.476Z,14.15
2022-12-31T14:58:28.606Z,14.14
2022-12-31T15:00:58.984Z,14.08
2022-12-31T15:03:31.643Z,14.04
2022-12-31T15:06:10.343Z,13.97
2022-12-31T15:08:46.694Z,13.86
2022-12-31T15:11:37.582Z,13.81
2022-12-31T15:14:37.594Z,13.81
2022-12-31T15:17:16.113Z,13.75
2022-12-31T15:20:17.545Z,13.74
2022-12-31T15:22:49.429Z,13.75
2022-12-31T15:25:33.913Z,13.71
2022-12-31T15:28:26.414Z,13.79
2022-12-31T15:30:57.546Z,13.77
2022-12-31T15:33:57.997Z,13.79
2022-12-31T15:36:35.525Z,13.77
2022-12-31T15:39:10.001Z,13.82
2022-12-31T15:41:46.135Z,13.84
2022-12-31T15:44:45.030Z,13.84
2022-12-31T15:47:36.560Z,13.85
2022-12-31T15:50:14.843Z,13.88
2022-12-31T15:52:53.665Z,13.90
2022-12-31T15:55:26.261Z,13.87
2022-12-31T15:57:56.795Z,13.94
2022-12-31T16:00:23.953Z,13.96
2022-12-31T16:02:53.123Z,14.06
2022-12-31T16:05:22.569Z,14.07
2022-12-31T16:07:52.773Z,14.08
2022-12-31T16:10:25.205Z,14.04
2022-12-31T16:12:53.608Z,14.24
2022-12-31T16:15:27.097Z,14.23
2022-12-31T16:18:10.573Z,14.18
2022-12-31T16:20:42.784Z,14.17
2022-12-31T16:23:23.909Z,14.16
2022-12-31T16:25:53.239Z,14.16
2022-12-31T16:28:21.990Z,14.09
2022-12-31T16:31:00.182Z,14.23
2022-12-31T16:33:26.686Z,14.28
2022-12-31T16:35:57.715Z,14.32
2022-12-31T16:38:32.244Z,14.34
2022-12-31T16:41:01.521Z,14.34
2022-12-31T16:43:39.522Z,14.49
2022-12-31T16:46:44.481Z,14.50
2022-12-31T16:49:20.243Z,14.50
2022-12-31T16:51:47.349Z,14.47
2022-12-31T16:54:25.826Z,14.48
2022-12-31T16:56:52.529Z,14.50
2022-12-31T16:59:40.800Z,14.46
2022-12-31T17:02:18.702Z,14.42
2022-12-31T17:04:55.417Z,14.51
2022-12-31T17:07:27.113Z,14.51
2022-12-31T17:10:08.903Z,14.52
2022-12-31T17:13:25.506Z,14.49
2022-12-31T17:15:41.073Z,14.47
2022-12-31T17:18:11.397Z,14.52
2022-12-31T17:20:37.935Z,14.39
2022-12-31T17:23:07.514Z,14.46
2022-12-31T17:25:37.821Z,14.49
2022-12-31T17:28:07.910Z,14.52
2022-12-31T17:30:35.950Z,14.52
2022-12-31T17:33:03.515Z,14.56
2022-12-31T17:35:35.928Z,14.48
2022-12-31T17:38:22.733Z,14.55
2022-12-31T17:40:59.997Z,14.59
2022-12-31T17:43:31.512Z,14.51
2022-12-31T17:46:02.737Z,14.49
2022-12-31T17:48:29.566Z,14.45
2022-12-31T17:50:58.909Z,14.43
2022-12-31T17:53:26.051Z,14.36
2022-12-31T17:55:56.351Z,14.43
2022-12-31T17:58:29.913Z,14.40
2022-12-31T18:00:57.565Z,14.43
2022-12-31T18:03:24.191Z,14.42
2022-12-31T18:05:50.685Z,14.40
2022-12-31T18:08:17.164Z,14.38
2022-12-31T18:10:44.387Z,14.42
2022-12-31T18:13:15.872Z,14.34
2022-12-31T18:15:42.235Z,14.50
2022-12-31T18:18:20.932Z,14.47
2022-12-31T18:20:53.910Z,14.49
2022-12-31T18:23:23.967Z,14.41
2022-12-31T18:25:50.483Z,14.43
2022-12-31T18:28:16.910Z,14.46
2022-12-31T18:30:44.355Z,14.52
2022-12-31T18:33:12.740Z,14.59
2022-12-31T18:36:07.652Z,14.56
2022-12-31T18:38:26.331Z,14.62
2022-12-31T18:40:57.275Z,14.67
2022-12-31T18:43:24.000Z,14.61
2022-12-31T18:45:51.767Z,14.69
2022-12-31T18:48:18.495Z,14.63
2022-12-31T18:50:45.729Z,14.62
2022-12-31T18:53:23.499Z,14.54
2022-12-31T18:55:51.616Z,14.50
2022-12-31T18:58:18.553Z,14.47
2022-12-31T19:00:45.666Z,14.40
2022-12-31T19:03:30.664Z,14.43
2022-12-31T19:05:57.086Z,14.42
2022-12-31T19:08:24.168Z,14.59
2022-12-31T19:10:52.151Z,14.52
2022-12-31T19:13:19.704Z,14.55
2022-12-31T19:15:49.704Z,14.51
2022-12-31T19:18:16.357Z,14.42
2022-12-31T19:20:43.102Z,14.48
2022-12-31T19:23:18.523Z,14.46
2022-12-31T19:25:46.084Z,14.50
2022-12-31T19:28:17.233Z,14.52
2022-12-31T19:30:44.107Z,14.52
2022-12-31T19:33:10.897Z,14.47
2022-12-31T19:35:37.993Z,14.56
2022-12-31T19:38:11.782Z,14.70
2022-12-31T19:40:40.140Z,14.71
2022-12-31T19:43:12.507Z,14.62
2022-12-31T19:45:41.023Z,14.58
2022-12-31T19:48:11.309Z,14.56
2022-12-31T19:50:40.267Z,14.49
2022-12-31T19:53:06.737Z,14.39
2022-12-31T19:55:33.244Z,14.42
2022-12-31T19:57:59.630Z,14.31
2022-12-31T20:00:26.134Z,14.31
2022-12-31T20:02:52.856Z,14.24
2022-12-31T20:05:19.395Z,14.16
2022-12-31T20:07:45.873Z,14.21
2022-12-31T20:10:12.340Z,14.23
2022-12-31T20:12:44.129Z,14.15
2022-12-31T20:15:11.228Z,14.14
2022-12-31T20:17:37.989Z,14.14
2022-12-31T20:20:05.833Z,14.16
2022-12-31T20:22:32.425Z,14.08
2022-12-31T20:24:59.019Z,14.05
2022-12-31T20:27:25.636Z,14.01
2022-12-31T20:29:52.056Z,14.00
2022-12-31T20:32:18.542Z,13.99
2022-12-31T20:34:45.147Z,13.92
2022-12-31T20:37:11.724Z,13.89
2022-12-31T20:39:38.103Z,13.98
2022-12-31T20:42:04.627Z,13.90
2022-12-31T20:44:30.979Z,14.01
2022-12-31T20:46:57.403Z,14.03
2022-12-31T20:49:52.082Z,14.08
2022-12-31T20:52:10.711Z,14.05
2022-12-31T20:54:37.027Z,14.07
2022-12-31T20:57:03.464Z,14.13
2022-12-31T20:59:29.862Z,14.08
2022-12-31T21:02:20.532Z,14.02
2022-12-31T21:04:42.825Z,14.08
2022-12-31T21:07:09.287Z,14.08
2022-12-31T21:09:35.651Z,14.04
2022-12-31T21:12:02.196Z,14.02
2022-12-31T21:14:28.599Z,14.01
2022-12-31T21:16:55.171Z,14.05
2022-12-31T21:19:21.557Z,14.06
2022-12-31T21:21:47.932Z,14.08
2022-12-31T21:24:18.836Z,14.07
2022-12-31T21:26:48.468Z,14.04
2022-12-31T21:29:14.908Z,14.04
2022-12-31T21:31:41.358Z,14.06
2022-12-31T21:34:09.495Z,14.08
2022-12-31T21:36:35.933Z,14.04
2022-12-31T21:39:02.388Z,14.10
2022-12-31T21:41:33.280Z,14.09
2022-12-31T21:44:00.482Z,14.20
2022-12-31T21:46:26.860Z,14.18
2022-12-31T21:49:00.379Z,14.19
2022-12-31T21:51:27.534Z,14.26
2022-12-31T21:53:54.086Z,14.33
2022-12-31T21:56:21.115Z,14.30
2022-12-31T21:58:53.770Z,14.23
2022-12-31T22:01:21.847Z,14.16
2022-12-31T22:03:48.415Z,14.06
2022-12-31T22:06:18.884Z,14.03
2022-12-31T22:08:46.874Z,14.00
2022-12-31T22:11:14.394Z,13.94
2022-12-31T22:13:41.261Z,13.90
2022-12-31T22:16:08.324Z,13.76
2022-12-31T22:18:37.102Z,13.80
2022-12-31T22:21:17.430Z,13.77
2022-12-31T22:23:46.156Z,13.74
2022-12-31T22:26:14.568Z,13.81
2022-12-31T22:28:42.490Z,13.83
2022-12-31T22:31:22.320Z,13.84
2022-12-31T22:33:48.982Z,13.77
2022-12-31T22:36:17.978Z,13.84
2022-12-31T22:38:45.260Z,13.92
2022-12-31T22:41:21.951Z,13.84
2022-12-31T22:43:50.685Z,13.89
2022-12-31T22:46:22.984Z,13.79
2022-12-31T22:48:50.790Z,13.88
2022-12-31T22:51:17.595Z,13.82
2022-12-31T22:53:44.475Z,13.73
2022-12-31T22:56:13.266Z,13.73
2022-12-31T22:58:39.677Z,13.75
2022-12-31T23:01:08.373Z,13.74
2022-12-31T23:03:35.031Z,13.81
2022-12-31T23:06:01.472Z,13.77
2022-12-31T23:08:27.822Z,13.83
2022-12-31T23:10:54.278Z,13.80
2022-12-31T23:13:21.316Z,13.80
2022-12-31T23:15:47.710Z,13.82
2022-12-31T23:18:14.101Z,13.80
2022-12-31T23:20:40.829Z,13.80
2022-12-31T23:23:08.794Z,13.82
2022-12-31T23:25:51.702Z,13.86
2022-12-31T23:28:20.947Z,13.86
2022-12-31T23:30:47.428Z,13.80
2022-12-31T23:33:16.889Z,13.80
2022-12-31T23:35:43.720Z,13.85
2022-12-31T23:38:10.392Z,13.92
2022-12-31T23:40:36.806Z,13.86
2022-12-31T23:43:05.899Z,14.02
2022-12-31T23:45:33.619Z,14.02
2022-12-31T23:48:00.598Z,14.04
2022-12-31T23:50:27.188Z,14.06
2022-12-31T23:52:54.008Z,14.06
2022-12-31T23:55:20.996Z,14.07
2022-12-31T23:57:47.498Z,14.10
